Time;durP1;ratioP1;P1;durP2;ratioP2;P2;SDS_P1;SDS_P2;PMS_P1;PMS_P2;Temp;Humidity;BMP_temperature;BMP_pressure;BME280_temperature;BME280_humidity;BME280_pressure;Samples;Min_cycle;Max_cycle;Signal;HPM_P1;HPM_P2
2023/07/03 00:01:17;;;;;;;23.70;11.77;;;16.50;95.50;;;;;;4934272;29;20035;-69
2023/07/03 00:03:43;;;;;;;22.83;11.68;;;16.60;95.40;;;;;;4933817;29;20074;-69
2023/07/03 00:06:08;;;;;;;22.67;11.68;;;16.60;95.50;;;;;;4934337;29;20484;-69
2023/07/03 00:08:34;;;;;;;24.60;11.98;;;16.60;95.50;;;;;;4933329;29;20071;-69
2023/07/03 00:11:01;;;;;;;28.33;12.18;;;16.70;95.50;;;;;;4934390;29;20035;-69
2023/07/03 00:13:26;;;;;;;25.88;12.25;;;16.70;95.60;;;;;;4933199;29;20569;-69
2023/07/03 00:15:58;;;;;;;24.60;11.90;;;16.70;95.50;;;;;;4934690;29;20107;-68
2023/07/03 00:18:24;;;;;;;21.65;11.65;;;16.70;95.70;;;;;;4933075;29;20036;-69
2023/07/03 00:20:54;;;;;;;21.73;11.82;;;16.70;95.80;;;;;;4934167;29;20059;-69
2023/07/03 00:23:20;;;;;;;21.73;10.45;;;16.70;95.90;;;;;;4930259;29;20032;-69
2023/07/03 00:25:46;;;;;;;21.15;11.93;;;16.60;96.00;;;;;;4934584;29;20047;-69
2023/07/03 00:28:12;;;;;;;20.75;11.57;;;16.60;96.10;;;;;;4934109;29;20035;-70
2023/07/03 00:30:37;;;;;;;26.02;11.55;;;16.60;96.20;;;;;;4920005;29;20035;-69
2023/07/03 00:33:03;;;;;;;26.38;12.07;;;16.60;96.10;;;;;;4934042;29;20024;-69
2023/07/03 00:35:28;;;;;;;29.38;12.93;;;16.70;96.10;;;;;;4933297;29;20038;-69
2023/07/03 00:37:54;;;;;;;26.13;12.23;;;16.80;95.90;;;;;;4933920;29;20056;-70
2023/07/03 00:40:19;;;;;;;29.25;12.70;;;16.80;95.80;;;;;;4924803;29;20027;-69
2023/07/03 00:42:45;;;;;;;22.88;11.77;;;16.90;95.70;;;;;;4934264;29;20031;-69
2023/07/03 00:45:11;;;;;;;20.67;11.30;;;16.90;95.50;;;;;;4933468;29;20386;-69
2023/07/03 00:47:38;;;;;;;25.27;11.98;;;17.00;95.50;;;;;;4933721;29;20032;-69
2023/07/03 00:50:04;;;;;;;19.95;10.90;;;17.10;95.30;;;;;;4933679;29;20457;-69
2023/07/03 00:52:30;;;;;;;21.05;11.70;;;17.10;95.20;;;;;;4933654;29;20111;-69
2023/07/03 00:54:57;;;;;;;20.27;11.18;;;17.20;94.90;;;;;;4933323;29;20115;-69
2023/07/03 00:57:23;;;;;;;20.38;11.23;;;17.30;94.80;;;;;;4933448;29;20036;-69
2023/07/03 00:59:49;;;;;;;22.33;11.52;;;17.40;94.60;;;;;;4933702;29;20087;-69
2023/07/03 01:02:22;;;;;;;28.70;12.05;;;17.50;94.60;;;;;;4933709;29;20027;-71
2023/07/03 01:04:50;;;;;;;30.05;13.18;;;17.60;94.40;;;;;;4933458;29;20087;-69
2023/07/03 01:07:20;;;;;;;25.27;12.75;;;17.60;94.20;;;;;;4933487;29;20056;-70
2023/07/03 01:09:55;;;;;;;25.57;12.13;;;17.70;94.00;;;;;;4933734;29;20095;-69
2023/07/03 01:12:24;;;;;;;22.52;11.55;;;17.80;93.90;;;;;;4933078;29;20264;-69
2023/07/03 01:14:50;;;;;;;26.33;12.48;;;17.80;93.80;;;;;;4933484;29;20111;-68
2023/07/03 01:17:17;;;;;;;26.98;12.38;;;17.90;93.60;;;;;;4933243;29;20027;-70
2023/07/03 01:19:46;;;;;;;21.15;11.77;;;18.00;93.70;;;;;;4932978;29;20040;-69
2023/07/03 01:22:22;;;;;;;23.50;11.52;;;18.00;93.60;;;;;;4916866;29;20521;-70
2023/07/03 01:24:55;;;;;;;25.98;12.30;;;18.00;93.50;;;;;;4933171;29;20028;-67
2023/07/03 01:27:25;;;;;;;22.40;11.95;;;18.10;93.40;;;;;;4933590;29;20028;-67
2023/07/03 01:29:52;;;;;;;20.90;11.20;;;18.10;93.30;;;;;;4930117;29;20119;-68
2023/07/03 01:32:20;;;;;;;37.88;13.13;;;18.10;93.30;;;;;;4933274;29;20114;-68
2023/07/03 01:34:49;;;;;;;24.27;11.63;;;18.10;93.20;;;;;;4933085;29;20449;-68
2023/07/03 01:37:17;;;;;;;19.67;10.82;;;18.10;93.20;;;;;;4933277;29;20032;-69
2023/07/03 01:39:45;;;;;;;20.67;11.63;;;18.10;93.10;;;;;;4932708;29;20370;-67
2023/07/03 01:42:12;;;;;;;22.60;11.73;;;18.20;93.10;;;;;;4936244;29;20028;-67
2023/07/03 01:44:38;;;;;;;23.85;12.00;;;18.20;93.10;;;;;;4935990;29;20052;-67
2023/07/03 01:47:06;;;;;;;21.15;11.32;;;18.20;93.00;;;;;;4937014;29;20031;-68
2023/07/03 01:49:32;;;;;;;26.27;11.45;;;18.20;93.00;;;;;;4935366;29;20050;-68
2023/07/03 01:52:18;;;;;;;23.45;11.85;;;18.20;93.00;;;;;;4937177;29;20027;-68
2023/07/03 01:54:52;;;;;;;24.00;12.02;;;18.20;93.00;;;;;;4936311;29;20027;-68
2023/07/03 01:57:41;;;;;;;23.38;11.90;;;18.20;93.00;;;;;;4936694;29;20110;-68
2023/07/03 02:00:12;;;;;;;23.47;12.07;;;18.20;93.00;;;;;;4936444;29;20051;-68
2023/07/03 02:02:39;;;;;;;26.48;11.63;;;18.20;93.00;;;;;;4936673;29;20034;-68
2023/07/03 02:05:13;;;;;;;25.52;12.82;;;18.20;93.00;;;;;;4936171;29;20024;-67
2023/07/03 02:07:41;;;;;;;23.92;12.20;;;18.20;93.00;;;;;;4936344;29;20431;-67
2023/07/03 02:10:07;;;;;;;26.60;12.98;;;18.30;93.00;;;;;;4936341;29;20032;-67
2023/07/03 02:12:33;;;;;;;27.77;12.57;;;18.30;93.00;;;;;;4935916;29;20109;-68
2023/07/03 02:15:03;;;;;;;25.20;12.50;;;18.20;93.10;;;;;;4936245;29;20473;-68
2023/07/03 02:17:30;;;;;;;24.60;11.85;;;18.20;93.20;;;;;;4935860;29;20027;-68
2023/07/03 02:19:55;;;;;;;25.95;12.63;;;18.20;93.20;;;;;;4935422;29;20118;-68
2023/07/03 02:22:21;;;;;;;22.33;11.93;;;18.20;93.20;;;;;;4929586;29;20444;-68
2023/07/03 02:24:47;;;;;;;21.73;11.70;;;18.20;93.20;;;;;;4927041;29;20087;-69
2023/07/03 02:27:12;;;;;;;24.20;11.63;;;18.10;93.30;;;;;;4928614;29;20043;-70
2023/07/03 02:29:38;;;;;;;23.83;11.50;;;18.20;93.30;;;;;;4927479;29;20028;-70
2023/07/03 02:32:12;;;;;;;25.27;12.10;;;18.20;93.30;;;;;;4928883;29;20062;-69
2023/07/03 02:34:38;;;;;;;25.92;12.82;;;18.10;93.30;;;;;;4926809;29;20032;-69
2023/07/03 02:37:04;;;;;;;25.95;12.90;;;18.10;93.30;;;;;;4929412;29;20079;-68
2023/07/03 02:39:30;;;;;;;22.10;11.68;;;18.10;93.30;;;;;;4927994;29;20096;-69
2023/07/03 02:41:56;;;;;;;20.48;10.90;;;18.10;93.40;;;;;;4929563;29;20419;-69
2023/07/03 02:44:22;;;;;;;26.35;12.15;;;18.10;93.40;;;;;;4925658;29;20056;-69
2023/07/03 02:46:47;;;;;;;25.58;12.45;;;18.10;93.50;;;;;;4928158;29;20027;-69
2023/07/03 02:49:13;;;;;;;18.00;10.88;;;18.10;93.40;;;;;;4928988;29;20470;-70
2023/07/03 02:51:38;;;;;;;22.02;11.50;;;18.10;93.50;;;;;;4927613;29;20394;-67
2023/07/03 02:54:05;;;;;;;23.58;10.95;;;18.10;93.50;;;;;;4927845;29;20110;-69
2023/07/03 02:56:30;;;;;;;19.75;11.13;;;18.10;93.50;;;;;;4925775;29;20028;-69
2023/07/03 02:58:56;;;;;;;24.80;11.50;;;18.10;93.80;;;;;;4929742;29;20032;-69
2023/07/03 03:01:21;;;;;;;24.38;11.82;;;18.10;93.60;;;;;;4933240;29;20358;-69
2023/07/03 03:03:47;;;;;;;22.50;11.35;;;18.20;93.60;;;;;;4929325;29;20056;-68
2023/07/03 03:06:13;;;;;;;24.20;11.85;;;18.20;93.60;;;;;;4929873;29;20046;-70
2023/07/03 03:08:39;;;;;;;24.73;11.18;;;18.10;93.50;;;;;;4930343;29;20032;-69
2023/07/03 03:11:04;;;;;;;29.55;12.80;;;18.20;93.60;;;;;;4929996;29;20031;-69
2023/07/03 03:13:30;;;;;;;24.10;11.73;;;18.20;93.60;;;;;;4930906;29;20130;-69
2023/07/03 03:15:55;;;;;;;21.17;11.25;;;18.20;93.60;;;;;;4935594;29;20484;-68
2023/07/03 03:18:21;;;;;;;23.13;11.23;;;18.20;93.60;;;;;;4934310;29;20032;-69
2023/07/03 03:20:47;;;;;;;21.23;10.45;;;18.20;93.70;;;;;;4935229;29;20024;-69
2023/07/03 03:23:13;;;;;;;21.63;11.35;;;18.20;93.80;;;;;;4935403;29;20532;-70
2023/07/03 03:25:39;;;;;;;21.98;11.63;;;18.20;93.70;;;;;;4934892;29;20044;-69
2023/07/03 03:28:05;;;;;;;20.45;11.02;;;18.20;93.70;;;;;;4935240;29;20039;-69
2023/07/03 03:30:31;;;;;;;21.58;11.10;;;18.20;93.70;;;;;;4921099;29;20027;-69
2023/07/03 03:32:57;;;;;;;23.58;11.05;;;18.20;93.80;;;;;;4935152;29;20092;-69
2023/07/03 03:35:22;;;;;;;24.77;11.50;;;18.20;93.80;;;;;;4934094;29;20039;-69
2023/07/03 03:37:48;;;;;;;22.13;11.98;;;18.10;93.90;;;;;;4934643;29;20028;-69
2023/07/03 03:40:14;;;;;;;23.27;11.85;;;18.10;94.00;;;;;;4934247;29;20099;-70
2023/07/03 03:42:40;;;;;;;19.30;10.88;;;18.20;94.10;;;;;;4934475;29;20529;-68
2023/07/03 03:45:06;;;;;;;22.13;11.70;;;18.20;94.20;;;;;;4933908;29;20052;-68
2023/07/03 03:47:32;;;;;;;22.17;11.55;;;18.10;94.20;;;;;;4934180;29;20769;-68
2023/07/03 03:49:57;;;;;;;22.67;11.60;;;18.10;94.30;;;;;;4934619;29;20031;-68
2023/07/03 03:52:23;;;;;;;27.15;12.02;;;18.10;94.40;;;;;;4934169;29;20039;-69
2023/07/03 03:54:49;;;;;;;20.77;10.88;;;18.10;94.50;;;;;;4934531;29;20386;-69
2023/07/03 03:57:15;;;;;;;20.25;10.98;;;18.10;94.60;;;;;;4934257;29;20034;-70
2023/07/03 03:59:41;;;;;;;23.90;11.68;;;18.10;94.70;;;;;;4934363;29;20036;-69
2023/07/03 04:02:06;;;;;;;26.48;12.55;;;18.10;94.80;;;;;;4934383;29;20024;-69
2023/07/03 04:04:32;;;;;;;26.60;12.65;;;18.10;94.90;;;;;;4933244;29;20032;-68
2023/07/03 04:06:58;;;;;;;21.65;11.77;;;18.00;94.90;;;;;;4934515;29;20111;-68
2023/07/03 04:09:23;;;;;;;22.35;11.38;;;18.00;95.00;;;;;;4933095;29;20035;-69
2023/07/03 04:11:49;;;;;;;23.40;11.60;;;18.00;95.10;;;;;;4934830;29;20031;-68
2023/07/03 04:14:16;;;;;;;19.60;10.95;;;18.10;95.00;;;;;;4933711;29;20509;-71
2023/07/03 04:16:43;;;;;;;26.85;12.45;;;18.00;95.00;;;;;;4934448;29;20042;-69
2023/07/03 04:19:09;;;;;;;25.00;11.77;;;18.10;95.10;;;;;;4933787;29;20067;-69
2023/07/03 04:21:34;;;;;;;19.88;11.63;;;18.10;95.10;;;;;;4933890;29;20632;-69
2023/07/03 04:24:00;;;;;;;23.15;11.95;;;18.00;95.20;;;;;;4934120;29;20373;-69
2023/07/03 04:26:26;;;;;;;24.20;11.98;;;18.00;95.30;;;;;;4933591;29;20034;-69
2023/07/03 04:28:51;;;;;;;23.63;11.55;;;18.10;95.30;;;;;;4930535;29;20502;-69
2023/07/03 04:31:17;;;;;;;24.13;11.73;;;18.00;95.30;;;;;;4925072;29;20083;-70
2023/07/03 04:33:45;;;;;;;20.90;11.40;;;18.00;95.30;;;;;;4933842;29;20079;-70
2023/07/03 04:36:11;;;;;;;24.00;11.77;;;18.00;95.40;;;;;;4934203;29;20059;-69
2023/07/03 04:38:39;;;;;;;25.40;11.90;;;18.00;95.40;;;;;;4932732;29;20568;-69
2023/07/03 04:41:05;;;;;;;25.75;11.48;;;18.10;95.50;;;;;;4934585;29;20036;-69
2023/07/03 04:43:31;;;;;;;21.13;10.65;;;18.00;95.40;;;;;;4933070;29;20050;-69
2023/07/03 04:46:03;;;;;;;17.83;10.70;;;18.10;95.40;;;;;;4934315;29;20031;-69
2023/07/03 04:48:29;;;;;;;25.75;12.77;;;18.20;95.40;;;;;;4931029;29;20064;-69
2023/07/03 04:50:54;;;;;;;23.38;11.07;;;18.20;95.30;;;;;;4934565;29;20035;-69
2023/07/03 04:53:20;;;;;;;20.50;10.65;;;18.20;95.40;;;;;;4932827;29;20024;-71
2023/07/03 04:55:47;;;;;;;23.42;10.88;;;18.30;95.20;;;;;;4934054;29;20051;-69
2023/07/03 04:58:12;;;;;;;27.92;11.55;;;18.30;95.10;;;;;;4922232;29;20374;-78
2023/07/03 05:00:40;;;;;;;26.35;11.23;;;18.40;95.00;;;;;;4923315;29;20040;-74
2023/07/03 05:03:05;;;;;;;24.63;10.75;;;18.40;95.00;;;;;;4928805;29;20032;-74
2023/07/03 05:05:31;;;;;;;19.38;10.38;;;18.40;94.90;;;;;;4933744;29;20031;-75
2023/07/03 05:07:57;;;;;;;17.00;9.65;;;18.40;94.90;;;;;;4933537;29;20494;-73
2023/07/03 05:10:23;;;;;;;23.83;11.63;;;18.50;94.90;;;;;;4931959;29;20142;-81
2023/07/03 05:12:49;;;;;;;21.95;11.73;;;18.50;94.80;;;;;;4934805;29;20389;-70
2023/07/03 05:15:17;;;;;;;20.20;10.77;;;18.60;94.90;;;;;;4933818;29;20029;-74
2023/07/03 05:17:42;;;;;;;22.30;10.65;;;18.60;94.70;;;;;;4936845;29;20035;-70
2023/07/03 05:20:12;;;;;;;20.90;9.80;;;18.70;94.60;;;;;;4936982;29;20044;-71
2023/07/03 05:22:40;;;;;;;20.60;9.88;;;18.80;94.60;;;;;;4936696;29;20412;-70
2023/07/03 05:25:07;;;;;;;20.27;10.02;;;18.90;94.30;;;;;;4936444;29;20043;-71
2023/07/03 05:27:34;;;;;;;19.48;10.63;;;18.90;94.10;;;;;;4936226;29;20034;-72
2023/07/03 05:29:59;;;;;;;18.50;9.60;;;19.00;94.20;;;;;;4931709;29;20043;-73
2023/07/03 05:32:25;;;;;;;24.77;10.88;;;19.10;94.20;;;;;;4934911;29;20397;-71
2023/07/03 05:34:51;;;;;;;20.13;10.75;;;19.10;93.90;;;;;;4935063;29;20083;-71
2023/07/03 05:37:17;;;;;;;20.15;10.27;;;19.20;94.00;;;;;;4917707;29;20052;-72
2023/07/03 05:39:46;;;;;;;20.08;10.43;;;19.20;93.90;;;;;;4934153;29;20039;-72
2023/07/03 05:42:11;;;;;;;23.80;11.05;;;19.30;93.80;;;;;;4929407;29;20024;-71
2023/07/03 05:44:37;;;;;;;23.33;10.13;;;19.40;93.70;;;;;;4933901;29;20047;-71
2023/07/03 05:47:03;;;;;;;17.55;9.65;;;19.40;93.70;;;;;;4933385;29;20107;-72
2023/07/03 05:49:28;;;;;;;19.85;10.18;;;19.50;93.50;;;;;;4928334;29;20034;-71
2023/07/03 05:51:54;;;;;;;22.85;11.43;;;19.60;93.50;;;;;;4932761;29;20083;-73
2023/07/03 05:54:21;;;;;;;17.70;10.68;;;19.60;93.40;;;;;;4920768;29;20038;-66
2023/07/03 05:57:02;;;;;;;20.90;10.98;;;19.70;93.50;;;;;;4928099;29;20064;-65
2023/07/03 05:59:27;;;;;;;20.27;10.07;;;19.80;93.30;;;;;;4931262;29;20442;-65
2023/07/03 06:01:55;;;;;;;21.85;10.73;;;19.90;93.20;;;;;;4931234;29;20114;-65
2023/07/03 06:04:22;;;;;;;19.27;9.73;;;20.10;93.00;;;;;;4933271;29;20473;-64
2023/07/03 06:06:49;;;;;;;22.38;10.73;;;20.20;92.80;;;;;;4936767;29;20031;-65
2023/07/03 06:09:14;;;;;;;18.80;10.27;;;20.30;92.80;;;;;;4934693;29;20036;-66
2023/07/03 06:11:40;;;;;;;20.45;9.73;;;20.40;92.80;;;;;;4936141;29;20035;-64
2023/07/03 06:14:15;;;;;;;17.52;9.70;;;20.60;92.40;;;;;;4936264;29;20465;-64
2023/07/03 06:16:41;;;;;;;21.90;9.60;;;20.70;92.00;;;;;;4936865;29;20039;-64
2023/07/03 06:19:07;;;;;;;18.30;10.43;;;20.80;91.70;;;;;;4935409;29;20039;-64
2023/07/03 06:21:32;;;;;;;20.27;9.82;;;20.80;91.70;;;;;;4935900;29;20117;-65
2023/07/03 06:23:58;;;;;;;20.85;10.00;;;20.80;91.60;;;;;;4935705;29;20032;-65
2023/07/03 06:26:23;;;;;;;18.10;10.02;;;20.80;91.60;;;;;;4933752;29;20110;-64
2023/07/03 06:28:49;;;;;;;16.02;9.80;;;20.80;91.70;;;;;;4934538;29;20032;-65
2023/07/03 06:31:15;;;;;;;20.67;9.90;;;20.80;91.60;;;;;;4935767;29;20040;-66
2023/07/03 06:33:41;;;;;;;17.40;9.20;;;20.70;91.40;;;;;;4934810;29;20043;-65
2023/07/03 06:36:06;;;;;;;18.00;10.15;;;20.80;91.50;;;;;;4918084;29;20039;-65
2023/07/03 06:38:32;;;;;;;20.20;9.15;;;20.90;91.50;;;;;;4935269;29;20624;-65
2023/07/03 06:40:58;;;;;;;16.55;9.95;;;21.00;91.30;;;;;;4935963;29;20051;-65
2023/07/03 06:43:24;;;;;;;16.88;9.70;;;21.10;91.20;;;;;;4934495;29;20028;-65
2023/07/03 06:45:50;;;;;;;20.90;9.52;;;21.10;91.10;;;;;;4935950;29;20118;-66
2023/07/03 06:48:16;;;;;;;23.05;9.63;;;21.10;91.40;;;;;;4934594;29;20118;-67
2023/07/03 06:50:41;;;;;;;15.25;8.75;;;21.10;91.20;;;;;;4935539;29;20035;-65
2023/07/03 06:53:07;;;;;;;18.15;9.18;;;21.20;91.30;;;;;;4936000;29;20358;-65
2023/07/03 06:55:32;;;;;;;17.98;9.68;;;21.20;91.30;;;;;;4931593;29;20100;-65
2023/07/03 06:58:00;;;;;;;18.98;9.32;;;21.30;91.10;;;;;;4935753;29;20106;-65
2023/07/03 07:00:26;;;;;;;17.67;9.02;;;21.40;90.80;;;;;;4927236;29;20537;-65
2023/07/03 07:02:52;;;;;;;16.65;8.45;;;21.50;90.70;;;;;;4932847;29;20035;-65
2023/07/03 07:05:19;;;;;;;17.77;9.63;;;21.60;90.30;;;;;;4933084;29;20040;-65
2023/07/03 07:07:45;;;;;;;14.80;8.38;;;21.60;90.40;;;;;;4928231;29;20111;-65
2023/07/03 07:10:11;;;;;;;21.10;9.27;;;21.60;90.40;;;;;;4933929;29;20433;-66
2023/07/03 07:12:36;;;;;;;13.70;8.60;;;21.60;90.00;;;;;;4930701;29;20027;-65
2023/07/03 07:15:03;;;;;;;19.52;9.15;;;21.60;90.10;;;;;;4934872;29;20035;-66
2023/07/03 07:17:29;;;;;;;16.38;8.75;;;21.70;89.50;;;;;;4934933;29;20040;-66
2023/07/03 07:19:54;;;;;;;16.15;8.10;;;21.70;89.00;;;;;;4931710;29;20474;-67
2023/07/03 07:22:20;;;;;;;16.55;8.18;;;21.70;89.60;;;;;;4918441;29;20032;-65
2023/07/03 07:24:46;;;;;;;19.23;9.00;;;21.70;88.80;;;;;;4935665;29;20031;-65
2023/07/03 07:27:11;;;;;;;19.95;8.48;;;21.70;89.10;;;;;;4930850;29;20062;-67
2023/07/03 07:29:39;;;;;;;18.20;9.15;;;21.60;90.00;;;;;;4932453;29;20070;-65
2023/07/03 07:32:06;;;;;;;19.92;9.02;;;21.60;90.00;;;;;;4934196;29;20059;-65
2023/07/03 07:34:31;;;;;;;18.50;8.93;;;21.50;89.80;;;;;;4933409;29;20098;-66
2023/07/03 07:36:57;;;;;;;18.38;8.88;;;21.50;89.90;;;;;;4934879;29;20166;-66
2023/07/03 07:39:24;;;;;;;17.90;8.95;;;21.40;90.00;;;;;;4931536;29;20035;-66
2023/07/03 07:41:51;;;;;;;18.90;9.02;;;21.20;90.40;;;;;;4934978;29;20115;-66
2023/07/03 07:44:17;;;;;;;20.92;9.27;;;21.10;90.50;;;;;;4932963;29;20056;-66
2023/07/03 07:46:43;;;;;;;19.40;8.93;;;21.00;90.80;;;;;;4934558;29;20462;-66
2023/07/03 07:49:09;;;;;;;15.27;9.05;;;20.90;90.90;;;;;;4933165;29;20036;-65
2023/07/03 07:51:34;;;;;;;20.25;9.70;;;20.90;90.90;;;;;;4933893;29;20208;-66
2023/07/03 07:54:01;;;;;;;18.33;8.82;;;20.80;91.00;;;;;;4930759;29;20038;-66
2023/07/03 07:56:27;;;;;;;19.42;9.23;;;20.80;91.00;;;;;;4919183;29;20035;-66
2023/07/03 07:58:53;;;;;;;19.25;9.88;;;20.70;91.30;;;;;;4930786;29;20039;-66
2023/07/03 08:01:19;;;;;;;18.50;9.02;;;20.70;91.30;;;;;;4931316;29;20031;-66
2023/07/03 08:03:45;;;;;;;19.15;8.57;;;20.70;91.40;;;;;;4934098;29;20541;-66
2023/07/03 08:06:12;;;;;;;22.63;10.23;;;20.70;91.30;;;;;;4934755;29;20099;-65
2023/07/03 08:08:38;;;;;;;24.73;10.68;;;20.90;91.30;;;;;;4921931;29;20039;-65
2023/07/03 08:11:05;;;;;;;19.08;9.07;;;21.00;91.20;;;;;;4934150;29;20484;-65
2023/07/03 08:13:33;;;;;;;20.60;9.75;;;21.20;91.20;;;;;;4932850;29;20081;-66
2023/07/03 08:15:59;;;;;;;18.98;9.00;;;21.50;90.90;;;;;;4934535;29;20410;-65
2023/07/03 08:18:24;;;;;;;18.73;9.85;;;21.80;90.50;;;;;;4932900;29;20044;-65
2023/07/03 08:20:51;;;;;;;19.92;9.05;;;22.10;90.20;;;;;;4934208;29;20038;-65
2023/07/03 08:23:17;;;;;;;17.27;8.50;;;22.10;89.90;;;;;;4933935;29;20485;-67
2023/07/03 08:25:44;;;;;;;21.38;9.27;;;22.30;90.20;;;;;;4934619;29;20028;-65
2023/07/03 08:28:10;;;;;;;20.02;10.07;;;22.50;90.30;;;;;;4934401;29;20087;-65
2023/07/03 08:30:36;;;;;;;20.33;10.32;;;22.70;90.20;;;;;;4932945;29;20032;-65
2023/07/03 08:33:02;;;;;;;20.90;10.15;;;22.70;90.40;;;;;;4934510;29;20039;-65
2023/07/03 08:35:27;;;;;;;23.38;9.55;;;22.70;90.20;;;;;;4933033;29;20039;-66
2023/07/03 08:37:54;;;;;;;19.80;9.77;;;22.60;90.40;;;;;;4932206;29;20453;-65
2023/07/03 08:40:21;;;;;;;20.83;9.43;;;22.50;90.30;;;;;;4933087;29;20047;-65
2023/07/03 08:42:53;;;;;;;23.58;9.75;;;22.50;90.20;;;;;;4932563;29;20488;-65
2023/07/03 08:45:21;;;;;;;19.27;9.73;;;22.40;90.40;;;;;;4932782;29;20378;-66
2023/07/03 08:47:50;;;;;;;21.40;8.63;;;22.50;90.50;;;;;;4932938;29;20468;-66
2023/07/03 08:50:18;;;;;;;20.90;9.27;;;22.50;91.00;;;;;;4930151;29;20036;-66
2023/07/03 08:53:03;;;;;;;19.70;9.75;;;22.60;90.60;;;;;;4938286;29;20104;-65
2023/07/03 08:56:11;;;;;;;20.02;9.45;;;22.70;90.50;;;;;;4929055;29;20105;-66
2023/07/03 08:58:36;;;;;;;15.35;9.35;;;22.90;90.30;;;;;;4931950;29;20055;-65
2023/07/03 09:01:18;;;;;;;21.80;9.85;;;23.30;89.50;;;;;;4937237;29;20091;-65
2023/07/03 09:04:02;;;;;;;23.65;9.25;;;23.40;88.70;;;;;;4937124;29;20097;-65
2023/07/03 09:06:50;;;;;;;22.05;9.68;;;23.30;88.60;;;;;;4934642;29;20028;-65
2023/07/03 09:09:32;;;;;;;21.80;10.13;;;23.00;88.40;;;;;;4935073;29;20051;-66
2023/07/03 09:12:17;;;;;;;20.48;10.45;;;22.70;89.30;;;;;;4935788;29;20053;-66
2023/07/03 09:14:49;;;;;;;19.25;9.45;;;22.60;90.00;;;;;;4937542;29;20035;-65
2023/07/03 09:17:14;;;;;;;22.55;9.85;;;22.50;90.30;;;;;;4938045;29;20031;-67
2023/07/03 09:19:44;;;;;;;18.15;9.13;;;22.60;89.40;;;;;;4936697;29;20040;-66
2023/07/03 09:22:46;;;;;;;18.73;9.05;;;22.50;89.50;;;;;;4937504;29;20031;-66
2023/07/03 09:25:21;;;;;;;22.45;9.65;;;22.70;89.40;;;;;;4918094;29;20203;-67
2023/07/03 09:27:49;;;;;;;18.98;9.18;;;23.10;88.90;;;;;;4928949;29;20355;-66
2023/07/03 09:30:16;;;;;;;19.08;9.55;;;23.10;88.10;;;;;;4935807;29;20031;-68
2023/07/03 09:32:41;;;;;;;21.73;9.00;;;23.20;88.10;;;;;;4936998;29;20024;-66
2023/07/03 09:35:19;;;;;;;19.60;8.95;;;23.20;87.80;;;;;;4936238;29;20028;-66
2023/07/03 09:37:56;;;;;;;17.67;7.85;;;23.30;87.50;;;;;;4938082;29;20027;-65
2023/07/03 09:40:25;;;;;;;23.30;10.43;;;23.40;87.30;;;;;;4936732;29;20059;-65
2023/07/03 09:42:51;;;;;;;20.25;8.88;;;23.40;86.80;;;;;;4931234;29;20071;-65
2023/07/03 09:45:21;;;;;;;20.58;8.32;;;23.50;97.20;;;;;;4933287;29;20543;-65
2023/07/03 09:47:55;;;;;;;20.90;9.47;;;23.50;97.60;;;;;;4938236;29;20028;-67
2023/07/03 09:50:25;;;;;;;22.40;8.82;;;23.30;97.30;;;;;;4937262;29;20036;-71
2023/07/03 09:52:53;;;;;;;;;;;23.30;97.40;;;;;;4933825;29;20040;-67
2023/07/03 09:55:19;;;;;;;17.48;7.65;;;23.50;96.90;;;;;;4935436;29;19907;-65
2023/07/03 09:57:45;;;;;;;19.67;8.48;;;23.80;93.50;;;;;;4936994;29;20426;-65
2023/07/03 10:00:16;;;;;;;16.88;7.43;;;24.00;91.20;;;;;;4936200;29;20094;-64
2023/07/03 10:02:43;;;;;;;14.25;7.13;;;24.10;91.00;;;;;;4929621;29;20036;-65
2023/07/03 10:05:19;;;;;;;22.35;7.05;;;24.20;90.60;;;;;;4916882;29;20115;-64
2023/07/03 10:07:46;;;;;;;15.70;6.60;;;24.00;90.70;;;;;;4929866;29;20028;-64
2023/07/03 10:10:16;;;;;;;25.45;8.00;;;24.00;81.70;;;;;;4935321;29;20533;-66
2023/07/03 10:12:52;;;;;;;18.70;6.55;;;24.10;80.80;;;;;;4935984;29;20036;-64
2023/07/03 10:15:25;;;;;;;13.07;6.82;;;24.10;80.50;;;;;;4935698;29;20075;-65
2023/07/03 10:17:59;;;;;;;18.48;6.80;;;24.10;81.20;;;;;;4935938;29;20031;-64
2023/07/03 10:20:41;;;;;;;15.10;7.22;;;24.20;79.80;;;;;;4933432;29;20116;-65
2023/07/03 10:23:10;;;;;;;22.65;7.45;;;24.40;79.50;;;;;;4918963;29;20035;-65
2023/07/03 10:25:44;;;;;;;12.57;6.13;;;24.60;78.30;;;;;;4934708;29;20039;-65
2023/07/03 10:28:19;;;;;;;15.60;6.80;;;24.60;78.30;;;;;;4935833;29;20034;-65
2023/07/03 10:30:52;;;;;;;12.25;6.60;;;24.80;77.20;;;;;;4935449;29;20039;-65
2023/07/03 10:33:24;;;;;;;11.95;6.22;;;24.80;77.40;;;;;;4928403;29;20108;-66
2023/07/03 10:35:51;;;;;;;12.05;6.22;;;24.60;77.20;;;;;;4936187;29;20086;-65
2023/07/03 10:38:30;;;;;;;11.85;6.35;;;24.40;77.20;;;;;;4935162;29;20713;-66
2023/07/03 10:41:18;;;;;;;15.55;5.97;;;24.50;77.60;;;;;;4925694;29;20035;-65
2023/07/03 10:43:49;;;;;;;13.50;5.50;;;24.90;75.60;;;;;;4934746;29;20094;-65
2023/07/03 10:46:25;;;;;;;8.70;4.72;;;;;;;;;;4935087;29;20032;-66
2023/07/03 10:48:56;;;;;;;13.20;5.13;;;;;;;;;;4934839;29;20465;-65
2023/07/03 10:51:40;;;;;;;10.50;4.95;;;;;;;;;;4933710;29;20512;-65
2023/07/03 10:54:13;;;;;;;10.75;4.78;;;25.00;90.90;;;;;;4934435;29;20067;-65
2023/07/03 10:56:45;;;;;;;11.02;4.90;;;25.00;91.00;;;;;;4928480;29;20035;-65
2023/07/03 10:59:20;;;;;;;11.50;4.70;;;25.20;93.40;;;;;;4935960;29;20849;-65
2023/07/03 11:02:10;;;;;;;9.95;4.40;;;25.30;93.20;;;;;;4934462;29;20040;-65
2023/07/03 11:04:48;;;;;;;12.35;4.35;;;25.40;94.50;;;;;;4933868;29;20079;-65
2023/07/03 11:07:17;;;;;;;10.75;4.20;;;25.60;96.50;;;;;;4935378;29;20032;-66
2023/07/03 11:09:50;;;;;;;8.07;3.92;;;;;;;;;;4935541;29;20397;-64
2023/07/03 11:12:39;;;;;;;11.23;4.30;;;25.20;96.70;;;;;;4935301;29;20455;-65
2023/07/03 11:15:29;;;;;;;7.80;4.10;;;;;;;;;;4925465;29;20373;-66
2023/07/03 11:18:17;;;;;;;12.40;3.95;;;;;;;;;;4927555;29;20039;-64
2023/07/03 11:20:50;;;;;;;13.50;4.22;;;24.60;97.70;;;;;;4934438;29;20095;-65
2023/07/03 11:23:39;;;;;;;11.60;4.40;;;24.70;98.20;;;;;;4933568;29;20396;-67
2023/07/03 11:26:42;;;;;;;9.32;4.47;;;24.80;98.70;;;;;;4911654;29;20036;-64
2023/07/03 11:29:10;;;;;;;11.18;4.63;;;;;;;;;;4935293;29;20477;-64
2023/07/03 11:31:39;;;;;;;9.80;3.92;;;;;;;;;;4930982;29;20545;-66
2023/07/03 11:34:07;;;;;;;10.55;4.10;;;;;;;;;;4934844;29;20020;-66
2023/07/03 11:36:38;;;;;;;11.55;4.30;;;;;;;;;;4935266;29;20667;-66
2023/07/03 11:39:19;;;;;;;8.75;4.25;;;;;;;;;;4921558;29;20119;-66
2023/07/03 11:42:05;;;;;;;10.18;5.07;;;;;;;;;;4934671;29;20485;-65
2023/07/03 11:44:44;;;;;;;14.25;5.00;;;;;;;;;;4932660;29;20058;-65
2023/07/03 11:47:28;;;;;;;9.38;4.20;;;;;;;;;;4934655;29;20079;-67
2023/07/03 11:49:59;;;;;;;12.20;5.10;;;24.20;98.00;;;;;;4933806;29;20036;-65
2023/07/03 11:52:36;;;;;;;9.30;4.70;;;24.50;97.90;;;;;;4932861;29;20441;-65
2023/07/03 11:55:10;;;;;;;9.50;4.45;;;24.60;97.80;;;;;;4933937;29;20109;-65
2023/07/03 11:57:39;;;;;;;11.95;5.40;;;24.70;98.20;;;;;;4933658;29;20039;-65
2023/07/03 12:00:22;;;;;;;13.15;5.30;;;;;;;;;;4933051;29;20111;-65
2023/07/03 12:02:48;;;;;;;12.80;6.25;;;;;;;;;;4933831;29;20047;-65
2023/07/03 12:05:33;;;;;;;14.25;6.32;;;;;;;;;;4933056;29;20099;-67
2023/07/03 12:07:59;;;;;;;13.77;5.80;;;;;;;;;;4933987;29;20031;-65
2023/07/03 12:10:25;;;;;;;11.68;6.07;;;;;;;;;;4932360;29;20040;-66
2023/07/03 12:13:09;;;;;;;19.60;6.10;;;;;;;;;;4933953;29;20101;-65
2023/07/03 12:15:35;;;;;;;15.55;6.32;;;;;;;;;;4932514;29;20465;-66
2023/07/03 12:18:02;;;;;;;19.00;6.75;;;;;;;;;;4933599;29;20086;-65
2023/07/03 12:20:28;;;;;;;17.25;5.82;;;;;;;;;;4929736;29;20027;-66
2023/07/03 12:22:54;;;;;;;11.63;5.07;;;;;;;;;;4934167;29;20031;-65
2023/07/03 12:25:22;;;;;;;17.77;6.30;;;;;;;;;;4932785;29;20477;-65
2023/07/03 12:27:48;;;;;;;15.45;6.50;;;;;;;;;;4933908;29;20042;-65
2023/07/03 12:30:23;;;;;;;8.85;4.72;;;;;;;;;;4932616;29;20433;-67
2023/07/03 12:32:49;;;;;;;13.60;5.50;;;;;;;;;;4933571;29;20087;-65
2023/07/03 12:35:18;;;;;;;11.18;4.75;;;25.40;77.90;;;;;;4932485;29;20485;-67
2023/07/03 12:37:48;;;;;;;10.82;5.63;;;25.60;78.50;;;;;;4934217;29;20035;-65
2023/07/03 12:40:16;;;;;;;11.63;5.57;;;25.70;77.90;;;;;;4932557;29;20095;-67
2023/07/03 12:42:45;;;;;;;9.95;4.38;;;25.40;78.00;;;;;;4933969;29;20388;-65
2023/07/03 12:45:20;;;;;;;9.95;5.38;;;25.00;78.80;;;;;;4932913;29;20500;-65
2023/07/03 12:47:59;;;;;;;11.40;4.70;;;25.00;78.80;;;;;;4933808;29;20031;-65
2023/07/03 12:50:25;;;;;;;11.43;5.15;;;25.20;78.40;;;;;;4931722;29;20127;-65